KLND/LND METAR and TAF weather

Enter ICAO airport designator
Station Type Date Time Source
KLND METAR 2020/01/28 11:53 UTC NOAA

KLND 281153Z AUTO 29003KT 10SM CLR M08/M14 A3008 RMK AO2 SLP224 70013 T10781139 11022 21089 57010


Station Type Date Time Source
KLND Decoded METAR 2020/01/28 11:53 UTC NOAA

LANDER HUNT FIELD, WY, United States (KLND) 42-49N 108-44W 1694M
Jan 28, 2020 - 06:53 AM EST / 2020.01.28 1153 UTC
Wind: from the WNW (290 degrees) at 3 MPH (3 KT):0
Visibility: 10 mile(s):0
Sky conditions: clear
Temperature: 18.0 F (-7.8 C)
Dew Point: 7.0 F (-13.9 C)
Relative Humidity: 61%
Pressure (altimeter): 30.08 in. Hg (1018 hPa)
Pressure tendency: 0.03 inches (1.0 hPa) lower than three hours ago
ob: KLND 281153Z AUTO 29003KT 10SM CLR M08/M14 A3008 RMK AO2 SLP224 70013 T10781139 11022 21089 57010
cycle: 12

Station Type Date Time Source
KLND TAF 2020/01/28 12:27 UTC NOAA

TAF KLND 281123Z 2812/2912 VRB05KT P6SM SKC
FM281400 VRB05KT P6SM FEW120 BKN200
FM290000 VRB05KT P6SM BKN100
FM291100 VRB05KT P6SM VCSH BKN040

Example: see airport list